KOQT METAR and TAF weather

Enter ICAO airport designator
Station Type Date Time Source
KOQT METAR 2017/08/21 22:53 UTC NOAA

KOQT 212253Z AUTO 08003KT 10SM CLR 32/19 A3015 RMK AO2 SLP192 T03170194


Station Type Date Time Source
KOQT Decoded METAR 2017/08/21 22:53 UTC NOAA

OAK RIDGE, TN, United States (KOQT) 36-01N 84-14W
Aug 21, 2017 - 06:53 PM EDT / 2017.08.21 2253 UTC
Wind: from the E (080 degrees) at 3 MPH (3 KT):0
Visibility: 10 mile(s):0
Sky conditions: clear
Temperature: 89.1 F (31.7 C)
Dew Point: 66.9 F (19.4 C)
Relative Humidity: 48%
Pressure (altimeter): 30.15 in. Hg (1020 hPa)
ob: KOQT 212253Z AUTO 08003KT 10SM CLR 32/19 A3015 RMK AO2 SLP192 T03170194
cycle: 23

Station Type Date Time Source
KOQT TAF UTC NOAA

Error!


Example: see airport list